createdAt,value
2019-05-05T00:00:14.363Z,10.70
2019-05-05T00:02:56.249Z,10.60
2019-05-05T00:05:28.044Z,10.60
2019-05-05T00:07:55.740Z,10.60
2019-05-05T00:10:30.839Z,10.60
2019-05-05T00:13:10.172Z,10.60
2019-05-05T00:15:55.875Z,10.60
2019-05-05T00:18:26.850Z,10.60
2019-05-05T00:20:55.196Z,10.50
2019-05-05T00:23:24.933Z,10.50
2019-05-05T00:25:52.418Z,10.60
2019-05-05T00:28:19.714Z,10.50
2019-05-05T00:30:47.229Z,10.50
2019-05-05T00:33:14.637Z,10.50
2019-05-05T00:35:42.206Z,10.50
2019-05-05T00:38:10.013Z,10.40
2019-05-05T00:40:37.420Z,10.40
2019-05-05T00:43:05.418Z,10.40
2019-05-05T00:45:34.458Z,10.40
2019-05-05T00:48:09.342Z,10.40
2019-05-05T00:50:36.680Z,10.30
2019-05-05T00:53:05.421Z,10.30
2019-05-05T00:55:34.869Z,10.30
2019-05-05T00:58:02.438Z,10.20
2019-05-05T01:00:44.534Z,10.30
2019-05-05T01:03:12.009Z,10.20
2019-05-05T01:05:59.618Z,10.10
2019-05-05T01:08:28.384Z,10.10
2019-05-05T01:10:56.577Z,10.10
2019-05-05T01:13:24.546Z,10.00
2019-05-05T01:15:54.113Z,9.90
2019-05-05T01:18:21.782Z,9.90
2019-05-05T01:20:49.225Z,9.90
2019-05-05T01:23:16.564Z,9.80
2019-05-05T01:25:45.500Z,9.80
2019-05-05T01:28:14.359Z,9.80
2019-05-05T01:30:45.925Z,9.70
2019-05-05T01:33:30.010Z,9.70
2019-05-05T01:35:57.566Z,9.70
2019-05-05T01:38:34.119Z,9.70
2019-05-05T01:41:09.962Z,9.60
2019-05-05T01:43:37.362Z,9.60
2019-05-05T01:46:05.110Z,9.50
2019-05-05T01:48:32.692Z,9.50
2019-05-05T01:51:00.176Z,9.40
2019-05-05T01:53:27.619Z,9.30
2019-05-05T01:55:56.141Z,9.30
2019-05-05T01:58:24.424Z,9.30
2019-05-05T02:00:54.548Z,9.20
2019-05-05T02:03:24.329Z,9.10
2019-05-05T02:05:51.757Z,9.10
2019-05-05T02:08:19.120Z,9.10
2019-05-05T02:10:47.357Z,9.10
2019-05-05T02:13:16.078Z,9.10
2019-05-05T02:15:44.606Z,9.00
2019-05-05T02:18:14.908Z,8.90
2019-05-05T02:21:00.426Z,8.90
2019-05-05T02:23:28.569Z,8.90
2019-05-05T02:25:58.121Z,8.90
2019-05-05T02:28:27.983Z,8.90
2019-05-05T02:31:25.532Z,8.90
2019-05-05T02:33:56.590Z,8.80
2019-05-05T02:36:25.845Z,8.80
2019-05-05T02:38:52.247Z,8.80
2019-05-05T02:41:20.349Z,8.90
2019-05-05T02:43:48.138Z,8.70
2019-05-05T02:46:26.650Z,8.70
2019-05-05T02:48:56.174Z,8.60
2019-05-05T02:51:25.717Z,8.60
2019-05-05T02:53:55.174Z,8.60
2019-05-05T02:56:28.913Z,8.50
2019-05-05T02:58:59.418Z,8.60
2019-05-05T03:01:35.524Z,8.50
2019-05-05T03:04:04.898Z,8.40
2019-05-05T03:06:34.303Z,8.40
2019-05-05T03:09:04.888Z,8.30
2019-05-05T03:11:34.354Z,8.30
2019-05-05T03:14:05.192Z,8.30
2019-05-05T03:16:37.458Z,8.20
2019-05-05T03:19:06.546Z,8.10
2019-05-05T03:21:34.267Z,8.10
2019-05-05T03:24:03.608Z,8.10
2019-05-05T03:26:34.007Z,8.00
2019-05-05T03:29:04.904Z,8.00
2019-05-05T03:31:35.181Z,8.00
2019-05-05T03:34:05.550Z,8.00
2019-05-05T03:36:33.905Z,8.00
2019-05-05T03:39:05.192Z,7.80
2019-05-05T03:41:41.082Z,8.00
2019-05-05T03:44:17.959Z,8.00
2019-05-05T03:46:45.532Z,8.00
2019-05-05T03:49:13.970Z,7.90
2019-05-05T03:51:43.737Z,7.80
2019-05-05T03:54:11.879Z,7.70
2019-05-05T03:56:40.006Z,7.60
2019-05-05T03:59:09.395Z,7.60
2019-05-05T04:01:46.775Z,7.50
2019-05-05T04:04:33.573Z,7.50
2019-05-05T04:07:01.425Z,7.50
2019-05-05T04:09:29.100Z,7.50
2019-05-05T04:11:56.515Z,7.50
2019-05-05T04:14:24.947Z,7.50
2019-05-05T04:17:07.153Z,7.40
2019-05-05T04:19:36.151Z,7.40
2019-05-05T04:22:04.246Z,7.50
2019-05-05T04:24:34.024Z,7.40
2019-05-05T04:27:01.194Z,7.40
2019-05-05T04:29:28.524Z,7.40
2019-05-05T04:31:56.544Z,7.40
2019-05-05T04:34:24.161Z,7.40
2019-05-05T04:36:51.563Z,7.50
2019-05-05T04:39:19.056Z,7.40
2019-05-05T04:41:46.512Z,7.50
2019-05-05T04:44:17.910Z,7.40
2019-05-05T04:46:47.243Z,7.40
2019-05-05T04:49:37.547Z,7.40
2019-05-05T04:52:08.399Z,7.40
2019-05-05T04:54:55.709Z,7.40
2019-05-05T04:57:24.024Z,7.70
2019-05-05T04:59:54.052Z,7.40
2019-05-05T05:02:47.589Z,7.40
2019-05-05T05:05:24.781Z,7.50
2019-05-05T05:07:54.207Z,7.40
2019-05-05T05:10:23.931Z,7.40
2019-05-05T05:12:53.884Z,7.40
2019-05-05T05:15:23.436Z,7.40
2019-05-05T05:18:04.184Z,7.40
2019-05-05T05:20:33.849Z,7.30
2019-05-05T05:23:01.124Z,7.30
2019-05-05T05:25:28.461Z,7.20
2019-05-05T05:27:56.878Z,7.20
2019-05-05T05:30:24.393Z,7.20
2019-05-05T05:32:53.733Z,7.20
2019-05-05T05:35:21.218Z,7.20
2019-05-05T05:37:49.142Z,7.10
2019-05-05T05:40:23.653Z,7.10
2019-05-05T05:42:51.394Z,7.10
2019-05-05T05:45:37.762Z,7.10
2019-05-05T05:48:23.744Z,6.90
2019-05-05T05:50:56.873Z,7.10
2019-05-05T05:53:24.570Z,7.00
2019-05-05T05:55:53.785Z,6.90
2019-05-05T05:58:21.290Z,6.90
2019-05-05T06:00:49.314Z,6.90
2019-05-05T06:03:16.603Z,6.90
2019-05-05T06:05:44.189Z,6.90
2019-05-05T06:08:13.929Z,6.90
2019-05-05T06:10:41.381Z,6.90
2019-05-05T06:13:08.787Z,6.90
2019-05-05T06:15:36.278Z,6.90
2019-05-05T06:18:04.613Z,7.00
2019-05-05T06:20:34.168Z,7.00
2019-05-05T06:23:03.905Z,7.00
2019-05-05T06:25:34.226Z,7.10
2019-05-05T06:28:04.043Z,7.00
2019-05-05T06:30:30.857Z,7.10
2019-05-05T06:32:58.229Z,7.10
2019-05-05T06:35:25.636Z,7.10
2019-05-05T06:37:54.288Z,7.10
2019-05-05T06:40:34.098Z,7.00
2019-05-05T06:43:13.865Z,7.00
2019-05-05T06:45:46.437Z,7.00
2019-05-05T06:48:13.857Z,7.00
2019-05-05T06:50:41.221Z,7.00
2019-05-05T06:53:08.529Z,7.00
2019-05-05T06:55:35.975Z,6.90
2019-05-05T06:58:04.614Z,6.90
2019-05-05T07:00:32.017Z,6.90
2019-05-05T07:02:59.334Z,6.90
2019-05-05T07:05:26.690Z,6.90
2019-05-05T07:07:54.092Z,6.90
2019-05-05T07:10:21.542Z,6.90
2019-05-05T07:12:48.993Z,6.90
2019-05-05T07:15:16.945Z,7.00
2019-05-05T07:17:44.527Z,6.90
2019-05-05T07:20:13.596Z,7.00
2019-05-05T07:22:41.257Z,6.90
2019-05-05T07:25:13.750Z,7.00
2019-05-05T07:27:41.561Z,7.00
2019-05-05T07:30:10.988Z,7.00
2019-05-05T07:32:38.388Z,7.00
2019-05-05T07:35:11.950Z,7.00
2019-05-05T07:37:43.549Z,7.10
2019-05-05T07:40:10.843Z,7.10
2019-05-05T07:42:38.379Z,7.10
2019-05-05T07:45:19.295Z,7.10
2019-05-05T07:47:37.017Z,7.10
2019-05-05T07:50:05.058Z,7.10
2019-05-05T07:52:34.295Z,7.10
2019-05-05T07:55:03.601Z,7.10
2019-05-05T07:57:31.034Z,7.10
2019-05-05T07:59:58.391Z,7.10
2019-05-05T08:02:25.784Z,7.10
2019-05-05T08:04:54.542Z,7.10
2019-05-05T08:07:23.896Z,7.10
2019-05-05T08:09:51.267Z,7.10
2019-05-05T08:12:18.722Z,7.10
2019-05-05T08:14:46.554Z,7.20
2019-05-05T08:17:25.621Z,7.20
2019-05-05T08:20:00.884Z,7.30
2019-05-05T08:22:28.339Z,7.30
2019-05-05T08:25:33.600Z,7.40
2019-05-05T08:27:56.830Z,7.40
2019-05-05T08:30:48.325Z,7.40
2019-05-05T08:33:15.668Z,7.50
2019-05-05T08:35:44.870Z,7.50
2019-05-05T08:38:13.771Z,7.50
2019-05-05T08:40:41.301Z,7.60
2019-05-05T08:43:09.587Z,7.60
2019-05-05T08:45:37.018Z,7.60
2019-05-05T08:48:05.138Z,7.70
2019-05-05T08:50:34.627Z,7.70
2019-05-05T08:53:01.815Z,7.80
2019-05-05T08:55:29.228Z,7.70
2019-05-05T08:57:56.541Z,7.70
2019-05-05T09:00:24.537Z,7.70
2019-05-05T09:02:54.170Z,7.70
2019-05-05T09:05:23.667Z,7.70
2019-05-05T09:07:50.617Z,7.70
2019-05-05T09:10:18.176Z,7.70
2019-05-05T09:12:45.566Z,7.70
2019-05-05T09:15:13.692Z,7.70
2019-05-05T09:17:43.787Z,7.80
2019-05-05T09:20:10.809Z,7.80
2019-05-05T09:23:00.844Z,7.80
2019-05-05T09:25:54.671Z,7.80
2019-05-05T09:28:29.429Z,7.80
2019-05-05T09:30:57.766Z,7.70
2019-05-05T09:33:37.948Z,7.70
2019-05-05T09:36:09.836Z,7.70
2019-05-05T09:38:38.468Z,7.70
2019-05-05T09:41:06.877Z,7.70
2019-05-05T09:43:34.596Z,7.80
2019-05-05T09:46:03.908Z,7.70
2019-05-05T09:48:33.588Z,7.80
2019-05-05T09:51:05.414Z,7.80
2019-05-05T09:53:34.672Z,7.90
2019-05-05T09:56:04.173Z,7.90
2019-05-05T09:58:34.852Z,8.00
2019-05-05T10:01:04.875Z,8.10
2019-05-05T10:03:34.078Z,8.10
2019-05-05T10:06:04.689Z,8.30
2019-05-05T10:08:31.613Z,8.20
2019-05-05T10:10:59.233Z,8.30
2019-05-05T10:13:26.864Z,8.30
2019-05-05T10:15:54.938Z,8.40
2019-05-05T10:18:22.583Z,8.40
2019-05-05T10:20:49.940Z,8.40
2019-05-05T10:23:17.404Z,8.40
2019-05-05T10:25:50.059Z,8.40
2019-05-05T10:28:18.151Z,8.30
2019-05-05T10:30:46.050Z,8.30
2019-05-05T10:33:14.231Z,8.30
2019-05-05T10:35:43.733Z,8.30
2019-05-05T10:38:14.272Z,8.40
2019-05-05T10:40:41.934Z,8.40
2019-05-05T10:43:09.734Z,8.40
2019-05-05T10:45:37.109Z,8.40
2019-05-05T10:48:04.761Z,8.50
2019-05-05T10:50:34.142Z,8.60
2019-05-05T10:53:04.271Z,8.60
2019-05-05T10:55:31.524Z,8.60
2019-05-05T10:58:00.989Z,8.70
2019-05-05T11:00:52.114Z,8.70
2019-05-05T11:03:19.551Z,8.80
2019-05-05T11:05:47.542Z,8.90
2019-05-05T11:08:15.448Z,8.90
2019-05-05T11:10:45.029Z,9.00
2019-05-05T11:13:12.863Z,9.10
2019-05-05T11:15:40.421Z,9.20
2019-05-05T11:18:08.199Z,9.30
2019-05-05T11:20:35.873Z,9.30
2019-05-05T11:23:11.634Z,9.30
2019-05-05T11:25:39.087Z,9.30
2019-05-05T11:28:08.381Z,9.20
2019-05-05T11:30:39.733Z,9.20
2019-05-05T11:33:19.477Z,9.20
2019-05-05T11:36:18.651Z,9.20
2019-05-05T11:38:46.279Z,9.30
2019-05-05T11:41:14.396Z,9.30
2019-05-05T11:43:42.084Z,9.40
2019-05-05T11:46:09.526Z,9.60
2019-05-05T11:48:36.953Z,9.70
2019-05-05T11:51:04.674Z,9.50
2019-05-05T11:53:33.982Z,9.50
2019-05-05T11:56:05.796Z,9.40
2019-05-05T11:58:34.075Z,9.40
2019-05-05T12:01:03.598Z,9.40
2019-05-05T12:03:31.086Z,9.50
2019-05-05T12:06:00.349Z,9.50
2019-05-05T12:08:31.241Z,9.50
2019-05-05T12:11:00.009Z,9.50
2019-05-05T12:13:28.496Z,9.50
2019-05-05T12:16:00.764Z,9.60
2019-05-05T12:18:29.063Z,9.60
2019-05-05T12:20:56.593Z,9.50
2019-05-05T12:23:23.984Z,9.50
2019-05-05T12:26:04.549Z,9.50
2019-05-05T12:28:36.606Z,9.50
2019-05-05T12:31:07.550Z,9.50
2019-05-05T12:33:35.749Z,9.50
2019-05-05T12:36:06.386Z,9.60
2019-05-05T12:38:35.175Z,9.60
2019-05-05T12:41:04.268Z,9.80
2019-05-05T12:43:34.081Z,9.70
2019-05-05T12:46:10.526Z,9.80
2019-05-05T12:48:39.079Z,9.80
2019-05-05T12:51:07.172Z,9.70
2019-05-05T12:53:36.484Z,9.80
2019-05-05T12:56:04.446Z,9.80
2019-05-05T12:58:33.585Z,9.70
2019-05-05T13:01:09.266Z,9.70
2019-05-05T13:03:36.770Z,9.80
2019-05-05T13:06:04.502Z,9.90
2019-05-05T13:08:34.038Z,10.00
2019-05-05T13:11:03.954Z,10.10
2019-05-05T13:13:34.586Z,10.20
2019-05-05T13:16:04.341Z,10.10
2019-05-05T13:18:33.796Z,10.10
2019-05-05T13:21:18.874Z,10.10
2019-05-05T13:23:58.522Z,10.10
2019-05-05T13:26:32.599Z,10.20
2019-05-05T13:29:00.731Z,10.10
2019-05-05T13:31:29.339Z,10.20
2019-05-05T13:33:57.047Z,10.20
2019-05-05T13:36:24.544Z,10.30
2019-05-05T13:38:54.480Z,10.20
2019-05-05T13:41:22.102Z,10.20
2019-05-05T13:43:50.045Z,10.30
2019-05-05T13:46:24.746Z,10.30
2019-05-05T13:48:53.928Z,10.10
2019-05-05T13:51:21.532Z,10.10
2019-05-05T13:53:50.149Z,10.20
2019-05-05T13:56:18.322Z,10.20
2019-05-05T13:58:45.984Z,10.30
2019-05-05T14:01:14.452Z,10.30
2019-05-05T14:03:44.735Z,10.30
2019-05-05T14:06:13.780Z,10.40
2019-05-05T14:08:41.562Z,10.40
2019-05-05T14:11:08.967Z,10.40
2019-05-05T14:13:36.503Z,10.40
2019-05-05T14:16:04.084Z,10.50
2019-05-05T14:18:31.625Z,10.50
2019-05-05T14:20:59.168Z,10.40
2019-05-05T14:23:27.647Z,10.40
2019-05-05T14:25:55.449Z,10.40
2019-05-05T14:28:23.453Z,10.40
2019-05-05T14:31:10.231Z,10.40
2019-05-05T14:33:49.402Z,10.40
2019-05-05T14:36:24.882Z,10.40
2019-05-05T14:38:55.139Z,10.40
2019-05-05T14:41:22.449Z,10.50
2019-05-05T14:43:50.276Z,10.50
2019-05-05T14:46:19.002Z,10.40
2019-05-05T14:48:48.140Z,10.30
2019-05-05T14:51:16.349Z,10.20
2019-05-05T14:53:47.002Z,10.20
2019-05-05T14:56:14.986Z,10.20
2019-05-05T14:58:43.828Z,10.10
2019-05-05T15:01:11.364Z,10.10
2019-05-05T15:03:38.893Z,10.10
2019-05-05T15:06:19.682Z,10.00
2019-05-05T15:09:09.701Z,10.00
2019-05-05T15:11:49.995Z,10.00
2019-05-05T15:14:17.767Z,10.00
2019-05-05T15:16:45.150Z,10.10
2019-05-05T15:19:14.410Z,10.10
2019-05-05T15:21:44.151Z,10.10
2019-05-05T15:24:13.862Z,10.10
2019-05-05T15:26:51.169Z,10.20
2019-05-05T15:29:10.791Z,10.20
2019-05-05T15:31:38.758Z,10.20
2019-05-05T15:34:06.186Z,10.20
2019-05-05T15:36:34.669Z,10.10
2019-05-05T15:39:06.393Z,10.00
2019-05-05T15:41:35.999Z,10.00
2019-05-05T15:44:04.746Z,9.90
2019-05-05T15:46:33.746Z,10.00
2019-05-05T15:49:04.207Z,9.80
2019-05-05T15:51:34.386Z,9.70
2019-05-05T15:54:03.929Z,9.70
2019-05-05T15:56:33.886Z,9.60
2019-05-05T15:59:01.181Z,9.50
2019-05-05T16:01:29.111Z,9.50
2019-05-05T16:03:56.607Z,9.50
2019-05-05T16:06:24.123Z,9.50
2019-05-05T16:08:54.469Z,9.50
2019-05-05T16:11:23.250Z,9.50
2019-05-05T16:13:51.390Z,9.50
2019-05-05T16:16:41.239Z,9.30
2019-05-05T16:19:30.918Z,9.40
2019-05-05T16:22:03.927Z,9.40
2019-05-05T16:24:36.546Z,9.40
2019-05-05T16:27:12.198Z,9.40
2019-05-05T16:29:33.673Z,9.30
2019-05-05T16:32:05.473Z,9.20
2019-05-05T16:34:33.949Z,9.20
2019-05-05T16:37:03.694Z,9.10
2019-05-05T16:39:31.045Z,9.00
2019-05-05T16:41:58.616Z,9.00
2019-05-05T16:44:26.223Z,8.90
2019-05-05T16:46:54.056Z,9.00
2019-05-05T16:49:23.294Z,8.90
2019-05-05T16:52:05.303Z,8.90
2019-05-05T16:54:38.147Z,8.90
2019-05-05T16:57:05.919Z,8.90
2019-05-05T16:59:34.130Z,8.90
2019-05-05T17:02:01.684Z,8.80
2019-05-05T17:04:29.103Z,8.80
2019-05-05T17:07:00.561Z,8.80
2019-05-05T17:09:28.753Z,8.80
2019-05-05T17:12:08.210Z,8.80
2019-05-05T17:14:48.663Z,8.80
2019-05-05T17:17:26.052Z,8.70
2019-05-05T17:20:01.703Z,8.80
2019-05-05T17:22:36.115Z,8.70
2019-05-05T17:25:06.856Z,8.70
2019-05-05T17:27:47.128Z,8.70
2019-05-05T17:30:05.554Z,8.70
2019-05-05T17:32:34.815Z,8.70
2019-05-05T17:35:03.833Z,8.70
2019-05-05T17:37:33.537Z,8.70
2019-05-05T17:40:11.396Z,8.60
2019-05-05T17:43:07.100Z,8.60
2019-05-05T17:45:54.961Z,8.60
2019-05-05T17:48:35.225Z,8.60
2019-05-05T17:51:25.763Z,8.50
2019-05-05T17:54:15.602Z,8.40
2019-05-05T17:56:43.115Z,8.40
2019-05-05T17:59:10.505Z,8.30
2019-05-05T18:01:37.955Z,8.30
2019-05-05T18:04:05.405Z,8.30
2019-05-05T18:06:44.098Z,8.50
2019-05-05T18:09:45.102Z,8.30
2019-05-05T18:12:23.784Z,8.30
2019-05-05T18:14:53.673Z,7.90
2019-05-05T18:17:21.324Z,8.30
2019-05-05T18:19:49.840Z,8.20
2019-05-05T18:22:17.420Z,8.20
2019-05-05T18:24:44.967Z,8.10
2019-05-05T18:27:14.068Z,8.10
2019-05-05T18:29:43.600Z,8.10
2019-05-05T18:32:11.451Z,8.10
2019-05-05T18:34:38.885Z,8.10
2019-05-05T18:37:07.287Z,8.10
2019-05-05T18:39:35.771Z,8.10
2019-05-05T18:42:13.962Z,8.10
2019-05-05T18:44:44.475Z,8.00
2019-05-05T18:47:18.154Z,8.00
2019-05-05T18:49:47.320Z,8.00
2019-05-05T18:52:16.094Z,8.00
2019-05-05T18:54:43.877Z,8.00
2019-05-05T18:57:11.558Z,8.00
2019-05-05T18:59:39.471Z,7.90
2019-05-05T19:02:14.460Z,7.90
2019-05-05T19:04:51.401Z,8.00
2019-05-05T19:07:34.126Z,8.00
2019-05-05T19:10:03.866Z,8.10
2019-05-05T19:12:31.201Z,8.00
2019-05-05T19:14:58.809Z,8.00
2019-05-05T19:17:28.853Z,8.20
2019-05-05T19:20:00.372Z,8.00
2019-05-05T19:22:31.449Z,8.00
2019-05-05T19:25:18.541Z,8.00
2019-05-05T19:27:46.588Z,8.00
2019-05-05T19:30:14.732Z,8.00
2019-05-05T19:32:43.730Z,8.00
2019-05-05T19:35:11.757Z,7.80
2019-05-05T19:37:39.138Z,8.00
2019-05-05T19:40:07.117Z,8.00
2019-05-05T19:42:34.969Z,8.00
2019-05-05T19:45:04.254Z,8.00
2019-05-05T19:47:34.008Z,8.00
2019-05-05T19:50:08.630Z,8.00
2019-05-05T19:52:36.047Z,8.00
2019-05-05T19:55:04.931Z,8.00
2019-05-05T19:57:35.822Z,8.20
2019-05-05T20:00:04.068Z,8.00
2019-05-05T20:02:34.045Z,7.90
2019-05-05T20:05:01.458Z,7.90
2019-05-05T20:07:28.875Z,7.80
2019-05-05T20:09:57.258Z,7.90
2019-05-05T20:12:25.278Z,7.80
2019-05-05T20:14:54.387Z,7.80
2019-05-05T20:17:33.808Z,7.80
2019-05-05T20:20:04.325Z,7.80
2019-05-05T20:22:31.342Z,7.80
2019-05-05T20:24:59.095Z,7.80
2019-05-05T20:27:26.592Z,7.90
2019-05-05T20:29:54.130Z,7.90
2019-05-05T20:32:31.447Z,7.90
2019-05-05T20:35:24.486Z,7.90
2019-05-05T20:38:00.256Z,7.90
2019-05-05T20:40:30.925Z,7.90
2019-05-05T20:42:58.399Z,7.90
2019-05-05T20:45:29.499Z,7.90
2019-05-05T20:47:57.037Z,8.00
2019-05-05T20:50:24.823Z,8.00
2019-05-05T20:52:53.582Z,7.90
2019-05-05T20:55:21.097Z,8.00
2019-05-05T20:57:48.569Z,7.90
2019-05-05T21:00:17.526Z,8.00
2019-05-05T21:02:45.234Z,7.90
2019-05-05T21:05:14.581Z,7.90
2019-05-05T21:07:44.302Z,7.90
2019-05-05T21:10:14.422Z,7.90
2019-05-05T21:12:44.864Z,7.90
2019-05-05T21:15:13.130Z,7.70
2019-05-05T21:17:40.872Z,7.90
2019-05-05T21:20:08.658Z,8.00
2019-05-05T21:22:58.516Z,8.00
2019-05-05T21:25:38.189Z,8.00
2019-05-05T21:28:05.873Z,8.00
2019-05-05T21:30:33.800Z,8.00
2019-05-05T21:33:01.258Z,8.00
2019-05-05T21:35:29.288Z,7.90
2019-05-05T21:37:56.973Z,8.00
2019-05-05T21:40:26.059Z,7.90
2019-05-05T21:42:54.249Z,7.90
2019-05-05T21:45:23.471Z,7.90
2019-05-05T21:47:54.802Z,7.90
2019-05-05T21:50:28.347Z,7.90
2019-05-05T21:53:04.665Z,7.90
2019-05-05T21:55:39.423Z,7.90
2019-05-05T21:58:14.781Z,7.80
2019-05-05T22:01:01.205Z,7.80
2019-05-05T22:03:35.822Z,7.80
2019-05-05T22:06:03.824Z,7.70
2019-05-05T22:08:34.846Z,7.80
2019-05-05T22:11:03.910Z,7.80
2019-05-05T22:13:31.768Z,7.80
2019-05-05T22:15:59.427Z,7.70
2019-05-05T22:18:26.821Z,7.70
2019-05-05T22:21:00.650Z,7.70
2019-05-05T22:23:28.182Z,7.80
2019-05-05T22:25:57.237Z,7.70
2019-05-05T22:28:26.429Z,7.80
2019-05-05T22:30:55.541Z,7.60
2019-05-05T22:33:24.655Z,7.60
2019-05-05T22:35:52.412Z,7.60
2019-05-05T22:38:19.852Z,7.60
2019-05-05T22:40:47.417Z,7.70
2019-05-05T22:43:15.002Z,7.90
2019-05-05T22:45:45.070Z,7.70
2019-05-05T22:48:14.370Z,7.70
2019-05-05T22:50:43.644Z,7.30
2019-05-05T22:53:11.116Z,7.70
2019-05-05T22:55:38.476Z,7.70
2019-05-05T22:58:05.947Z,7.70
2019-05-05T23:00:34.792Z,7.70
2019-05-05T23:03:10.911Z,7.70
2019-05-05T23:05:46.969Z,7.70
2019-05-05T23:08:14.438Z,7.70
2019-05-05T23:10:43.752Z,7.70
2019-05-05T23:13:13.541Z,7.70
2019-05-05T23:15:47.509Z,7.70
2019-05-05T23:18:20.091Z,7.70
2019-05-05T23:21:07.232Z,7.70
2019-05-05T23:23:57.152Z,7.70
2019-05-05T23:26:26.106Z,7.70
2019-05-05T23:28:54.571Z,7.60
2019-05-05T23:31:24.136Z,7.60
2019-05-05T23:33:51.756Z,7.60
2019-05-05T23:36:19.318Z,7.70
2019-05-05T23:38:46.933Z,7.60
2019-05-05T23:41:14.686Z,7.60
2019-05-05T23:43:42.328Z,7.60
2019-05-05T23:46:09.959Z,7.60
2019-05-05T23:48:37.517Z,7.70
2019-05-05T23:51:05.050Z,7.60
2019-05-05T23:53:34.563Z,7.60
2019-05-05T23:56:03.858Z,7.60
2019-05-05T23:58:31.021Z,7.40
